Time;durP1;ratioP1;P1;durP2;ratioP2;P2;SDS_P1;SDS_P2;PMS_P1;PMS_P2;Temp;Humidity;BMP_temperature;BMP_pressure;BME280_temperature;BME280_humidity;BME280_pressure;Samples;Min_cycle;Max_cycle;Signal;HPM_P1;HPM_P2
2023/10/04 00:00:42;;;;;;;16.30;3.60;;;;;;;22.33;58.14;98969.77;67828;1276;1016562;-66
2023/10/04 00:04:04;;;;;;;19.20;3.70;;;;;;;22.64;57.03;98985.26;67898;1276;1016409;-67
2023/10/04 00:07:07;;;;;;;16.60;3.70;;;;;;;22.66;56.80;98987.96;67875;1276;1016507;-67
2023/10/04 00:10:10;;;;;;;13.20;3.30;;;;;;;22.72;56.77;99001.56;67824;1276;1016443;-65
2023/10/04 00:13:12;;;;;;;15.70;3.60;;;;;;;22.28;58.19;99000.23;67863;1276;1020222;-67
2023/10/04 00:16:14;;;;;;;15.90;3.80;;;;;;;22.15;58.69;98995.53;67884;1276;1016504;-65
2023/10/04 00:19:20;;;;;;;15.10;3.70;;;;;;;22.23;58.34;99000.40;67878;1276;1016488;-67
2023/10/04 00:22:23;;;;;;;17.20;3.80;;;;;;;22.29;58.18;98996.34;67875;1276;1016473;-67
2023/10/04 00:25:25;;;;;;;16.40;3.70;;;;;;;22.10;58.68;99003.11;67902;1276;1016729;-66
2023/10/04 00:28:29;;;;;;;;;;;;;;;22.01;59.42;99009.67;67859;1276;1016408;-66
2023/10/04 00:31:32;;;;;;;17.90;3.80;;;;;;;22.05;59.45;99006.95;67858;1276;1016447;-67
2023/10/04 00:34:35;;;;;;;14.60;4.00;;;;;;;21.99;59.87;99011.23;67890;1276;1017983;-65
2023/10/04 00:37:37;;;;;;;18.90;4.20;;;;;;;22.03;59.73;99019.74;67885;1276;1016386;-67
2023/10/04 00:40:39;;;;;;;18.90;4.30;;;;;;;22.10;59.80;99033.63;67856;1276;1016447;-67
2023/10/04 00:43:42;;;;;;;17.60;4.50;;;;;;;22.13;59.75;99041.34;67853;1276;1016400;-65
2023/10/04 00:46:45;;;;;;;16.70;3.90;;;;;;;22.21;59.45;99047.40;67867;1276;1018299;-65
2023/10/04 00:49:48;;;;;;;17.80;3.90;;;;;;;22.19;59.84;99056.18;67831;1276;1016728;-65
2023/10/04 00:52:50;;;;;;;17.70;4.10;;;;;;;22.24;59.58;99064.23;67861;1276;1016588;-65
2023/10/04 00:55:56;;;;;;;16.90;4.00;;;;;;;22.33;59.39;99068.09;67856;1276;1016274;-67
2023/10/04 00:58:59;;;;;;;17.10;4.10;;;;;;;22.44;59.19;99062.70;67893;1276;1017096;-64
2023/10/04 01:02:01;;;;;;;17.30;3.70;;;;;;;22.59;58.78;99063.21;67898;1276;1016352;-67
2023/10/04 01:05:04;;;;;;;17.40;4.30;;;;;;;22.62;58.81;99066.55;67902;1276;1016368;-67
2023/10/04 01:08:07;;;;;;;17.70;4.60;;;;;;;22.60;58.76;99079.95;67872;1276;1019320;-67
2023/10/04 01:11:09;;;;;;;17.30;4.50;;;;;;;22.45;59.42;99086.80;67880;1276;1016456;-66
2023/10/04 01:14:18;;;;;;;19.30;4.10;;;;;;;22.34;59.73;99097.52;67908;1276;1016453;-66
2023/10/04 01:17:22;;;;;;;15.10;3.80;;;;;;;22.18;60.57;99109.89;67916;1276;1015804;-66
2023/10/04 01:20:27;;;;;;;17.20;3.40;;;;;;;22.10;60.66;99124.73;67880;1276;1015865;-65
2023/10/04 01:23:30;;;;;;;15.80;3.80;;;;;;;21.94;60.19;99144.22;67861;1276;1016868;-67
2023/10/04 01:26:32;;;;;;;15.30;3.80;;;;;;;22.05;59.97;99142.73;67878;1276;1017436;-66
2023/10/04 01:29:38;;;;;;;14.60;3.30;;;;;;;21.90;60.03;99157.61;67865;1276;1016569;-66
2023/10/04 01:32:40;;;;;;;15.90;3.50;;;;;;;21.84;60.20;99160.21;67842;1276;1016499;-65
2023/10/04 01:35:44;;;;;;;15.90;3.50;;;;;;;21.91;59.87;99158.98;67858;1276;1016717;-68
2023/10/04 01:38:47;;;;;;;13.90;3.70;;;;;;;21.88;59.85;99164.64;67861;1276;1016385;-64
2023/10/04 01:41:49;;;;;;;13.30;3.50;;;;;;;21.87;59.52;99174.99;67888;1276;1016734;-65
2023/10/04 01:44:52;;;;;;;14.20;3.20;;;;;;;21.85;59.39;99184.85;67910;1276;1016264;-64
2023/10/04 01:47:54;;;;;;;12.30;2.80;;;;;;;21.82;59.35;99194.61;67890;1276;1016307;-65
2023/10/04 01:50:56;;;;;;;12.90;2.60;;;;;;;21.66;59.67;99211.52;67869;1276;1016434;-64
2023/10/04 01:54:00;;;;;;;10.60;2.60;;;;;;;21.67;59.55;99220.30;67857;1276;1016231;-64
2023/10/04 01:57:05;;;;;;;12.70;3.00;;;;;;;21.58;59.89;99224.58;67863;1276;1016470;-64
2023/10/04 02:00:07;;;;;;;10.70;2.60;;;;;;;21.47;60.04;99246.65;67892;1276;1016266;-64
2023/10/04 02:03:11;;;;;;;11.40;2.80;;;;;;;21.49;59.07;99261.80;67907;1276;1019318;-64
2023/10/04 02:06:15;;;;;;;;;;;;;;;21.52;57.23;99267.33;67921;1276;1016205;-65
2023/10/04 02:09:20;;;;;;;7.80;2.10;;;;;;;21.51;56.23;99278.29;67917;1276;1016198;-65
2023/10/04 02:12:22;;;;;;;10.50;2.20;;;;;;;21.52;55.33;99284.74;67860;1276;1016168;-65
2023/10/04 02:15:25;;;;;;;9.00;2.30;;;;;;;21.43;55.01;99293.05;67860;1276;1016506;-64
2023/10/04 02:18:28;;;;;;;12.40;2.80;;;;;;;21.51;54.54;99300.38;67911;1276;1018725;-66
2023/10/04 02:21:30;;;;;;;8.90;2.10;;;;;;;21.43;53.79;99300.04;67869;1276;1016136;-65
2023/10/04 02:24:33;;;;;;;9.60;2.00;;;;;;;21.26;53.69;99294.77;67855;1276;1018865;-65
2023/10/04 02:27:35;;;;;;;9.60;1.90;;;;;;;21.46;53.45;99294.39;67875;1276;1016528;-65
2023/10/04 02:30:37;;;;;;;11.00;2.20;;;;;;;21.28;53.71;99300.45;67940;1276;1018213;-65
2023/10/04 02:33:40;;;;;;;8.30;1.90;;;;;;;21.15;54.22;99302.44;67909;1276;1015833;-66
2023/10/04 02:36:43;;;;;;;10.40;2.00;;;;;;;21.14;54.53;99311.29;67923;1276;1016280;-67
2023/10/04 02:39:46;;;;;;;10.90;2.40;;;;;;;20.80;55.80;99332.30;67901;1276;1016262;-66
2023/10/04 02:42:48;;;;;;;8.70;2.30;;;;;;;20.82;55.53;99341.37;67916;1276;1016482;-67
2023/10/04 02:45:52;;;;;;;12.00;2.10;;;;;;;20.72;55.51;99344.60;67865;1276;1016399;-65
2023/10/04 02:48:54;;;;;;;13.40;2.20;;;;;;;20.58;55.55;99353.31;67888;1253;1019787;-64
2023/10/04 02:51:57;;;;;;;10.50;2.10;;;;;;;20.58;55.63;99356.02;67896;1276;1016465;-67
2023/10/04 02:54:59;;;;;;;8.70;2.00;;;;;;;20.63;55.51;99354.64;67865;1276;1016497;-66
2023/10/04 02:58:05;;;;;;;10.20;2.00;;;;;;;20.51;55.99;99359.85;67896;1276;1016451;-66
2023/10/04 03:01:08;;;;;;;9.40;1.70;;;;;;;20.36;56.16;99372.42;67884;1276;1015921;-67
2023/10/04 03:04:14;;;;;;;11.50;2.30;;;;;;;20.19;56.44;99382.00;67866;1276;1016426;-66
2023/10/04 03:07:16;;;;;;;12.30;2.30;;;;;;;20.18;56.17;99388.34;67909;1276;1016563;-66
2023/10/04 03:10:24;;;;;;;8.60;1.90;;;;;;;20.13;55.89;99392.44;67890;1276;1016423;-65
2023/10/04 03:13:27;;;;;;;7.70;1.70;;;;;;;20.16;55.02;99387.98;67881;1276;1018758;-67
2023/10/04 03:16:30;;;;;;;9.90;2.00;;;;;;;19.99;55.01;99394.60;67938;1276;1016360;-66
2023/10/04 03:19:34;;;;;;;9.10;2.00;;;;;;;20.08;54.73;99399.50;67927;1276;1016168;-67
2023/10/04 03:22:42;;;;;;;6.40;1.80;;;;;;;19.91;55.07;99405.83;67893;1276;1016488;-68
2023/10/04 03:25:44;;;;;;;6.90;1.70;;;;;;;19.92;55.07;99412.70;67895;1276;1016949;-66
2023/10/04 03:28:47;;;;;;;13.70;2.70;;;;;;;19.90;55.04;99408.95;67880;1276;1017524;-68
2023/10/04 03:31:49;;;;;;;9.50;2.30;;;;;;;19.73;55.52;99404.45;67857;1276;1016457;-68
2023/10/04 03:34:51;;;;;;;9.80;2.10;;;;;;;19.78;55.41;99407.57;67863;1276;1016500;-67
2023/10/04 03:37:58;;;;;;;13.70;2.20;;;;;;;19.65;55.84;99415.56;67857;1276;1019161;-68
2023/10/04 03:41:00;;;;;;;13.20;2.70;;;;;;;19.61;56.25;99419.13;67936;1276;1016169;-66
2023/10/04 03:44:05;;;;;;;10.20;2.00;;;;;;;19.59;56.51;99429.27;67904;1276;1016277;-68
2023/10/04 03:47:09;;;;;;;12.50;2.40;;;;;;;19.63;56.61;99421.63;67886;1276;1016530;-67
2023/10/04 03:50:11;;;;;;;13.50;2.70;;;;;;;19.67;56.32;99413.63;67928;1276;1016637;-65
2023/10/04 03:53:14;;;;;;;11.00;2.20;;;;;;;19.42;57.02;99436.76;67854;1276;1016619;-66
2023/10/04 03:56:17;;;;;;;9.80;2.50;;;;;;;19.56;56.39;99433.40;67925;1276;1016438;-65
2023/10/04 03:59:19;;;;;;;7.40;2.10;;;;;;;19.28;57.38;99430.02;67947;1276;1016186;-67
2023/10/04 04:02:21;;;;;;;13.60;2.20;;;;;;;19.32;57.06;99440.49;67873;1276;1016544;-67
2023/10/04 04:05:25;;;;;;;15.60;2.40;;;;;;;19.42;57.36;99442.65;67924;1276;1016162;-69
2023/10/04 04:08:27;;;;;;;8.50;2.10;;;;;;;19.60;56.72;99443.73;67910;1276;1016417;-68
2023/10/04 04:11:29;;;;;;;12.90;2.40;;;;;;;19.50;57.10;99445.16;67882;1276;1016494;-69
2023/10/04 04:14:32;;;;;;;8.90;2.10;;;;;;;19.49;57.05;99450.38;67872;1276;1018738;-67
2023/10/04 04:17:34;;;;;;;16.50;2.50;;;;;;;19.53;57.25;99449.09;67893;1276;1016330;-68
2023/10/04 04:20:40;;;;;;;14.80;2.60;;;;;;;19.52;57.54;99451.31;67925;1276;1016446;-68
2023/10/04 04:23:43;;;;;;;13.90;2.90;;;;;;;19.60;57.20;99452.36;67937;1276;1018349;-67
2023/10/04 04:26:46;;;;;;;12.60;2.40;;;;;;;19.70;56.93;99456.52;67897;1276;1016523;-68
2023/10/04 04:29:50;;;;;;;12.10;2.40;;;;;;;19.75;56.83;99466.30;67903;1276;1015542;-68
2023/10/04 04:32:56;;;;;;;9.60;2.20;;;;;;;19.74;56.75;99477.44;67892;1276;1016499;-66
2023/10/04 04:36:05;;;;;;;10.20;2.20;;;;;;;19.74;56.55;99471.95;67945;1276;1016012;-68
2023/10/04 04:39:13;;;;;;;12.00;2.30;;;;;;;19.70;56.07;99483.85;67884;1276;1016327;-68
2023/10/04 04:42:18;;;;;;;15.30;2.30;;;;;;;19.52;56.29;99489.96;67907;1276;1016303;-67
2023/10/04 04:45:24;;;;;;;10.40;2.50;;;;;;;19.38;56.73;99488.93;67887;1276;1018227;-68
2023/10/04 04:48:27;;;;;;;15.30;2.70;;;;;;;19.63;56.07;99497.89;67913;1276;1016234;-65
2023/10/04 04:51:31;;;;;;;11.10;2.40;;;;;;;19.76;55.82;99496.62;67946;1276;1016376;-68
2023/10/04 04:54:34;;;;;;;13.50;2.40;;;;;;;19.77;55.98;99503.90;67887;1276;1016500;-69
2023/10/04 04:57:36;;;;;;;13.10;2.40;;;;;;;19.78;55.82;99506.05;67882;1276;1016484;-69
2023/10/04 05:00:42;;;;;;;13.80;2.60;;;;;;;19.73;55.70;99507.67;67915;1276;1016258;-69
2023/10/04 05:03:45;;;;;;;16.50;3.00;;;;;;;19.71;55.65;99518.52;67901;1276;1015852;-68
2023/10/04 05:06:48;;;;;;;11.60;2.40;;;;;;;19.63;55.92;99523.64;67877;1276;1016617;-69
2023/10/04 05:09:50;;;;;;;14.70;2.50;;;;;;;19.65;55.79;99527.55;67877;1276;1016530;-67
2023/10/04 05:12:52;;;;;;;16.10;3.00;;;;;;;19.64;55.38;99539.86;67918;1276;1015784;-67
2023/10/04 05:15:56;;;;;;;12.00;2.80;;;;;;;19.56;55.48;99544.27;67902;1276;1018989;-68
2023/10/04 05:18:59;;;;;;;14.30;2.30;;;;;;;19.50;55.50;99554.17;67900;1276;1016439;-66
2023/10/04 05:22:02;;;;;;;10.50;2.40;;;;;;;19.31;55.11;99562.90;67934;1276;1018037;-65
2023/10/04 05:25:06;;;;;;;14.20;2.50;;;;;;;19.41;54.76;99560.61;67895;1276;1016136;-69
2023/10/04 05:28:11;;;;;;;15.00;2.60;;;;;;;19.33;55.13;99567.33;67923;1276;1017052;-69
2023/10/04 05:31:13;;;;;;;10.10;2.40;;;;;;;19.33;55.23;99564.35;67913;1276;1016435;-66
2023/10/04 05:34:16;;;;;;;13.90;2.10;;;;;;;19.33;54.49;99567.68;67890;1276;1017472;-69
2023/10/04 05:37:18;;;;;;;17.20;3.10;;;;;;;19.40;54.85;99575.46;67884;1276;1016044;-69
2023/10/04 05:40:25;;;;;;;12.50;2.50;;;;;;;19.56;54.43;99584.02;67912;1276;1016485;-68
2023/10/04 06:03:34;;;;;;;14.70;3.20;;;;;;;17.05;73.84;99593.17;131140;1317;558033;-65
2023/10/04 06:06:37;;;;;;;13.10;2.40;;;;;;;18.09;64.76;99608.34;130644;1289;5318634;-64
2023/10/04 06:09:42;;;;;;;;;;;;;;;18.08;64.55;99614.81;134663;1290;22595;-65
2023/10/04 06:12:46;;;;;;;18.20;2.90;;;;;;;18.06;63.83;99625.40;134641;1290;22543;-66
2023/10/04 06:15:49;;;;;;;17.10;2.80;;;;;;;17.91;64.35;99633.14;134655;1290;22546;-66
2023/10/04 06:18:51;;;;;;;14.60;3.30;;;;;;;18.11;64.04;99633.73;134812;1287;22539;-66
2023/10/04 06:21:54;;;;;;;;;;;;;;;18.15;63.84;99641.34;134838;1287;22514;-64
2023/10/04 06:24:56;;;;;;;20.20;3.00;;;;;;;18.07;64.22;99648.16;68305;1287;1016512;-62
2023/10/04 06:27:59;;;;;;;16.10;2.90;;;;;;;18.23;63.84;99655.19;67332;1287;1016432;-63
2023/10/04 06:47:38;;;;;;;19.80;3.30;;;;;;;16.69;76.27;99672.27;131754;1311;558092;-67
2023/10/04 06:50:43;;;;;;;;;;;;;;;17.40;69.90;99671.64;130550;1292;5318787;-64
2023/10/04 06:53:46;;;;;;;15.20;2.80;;;;;;;17.43;69.83;99679.95;134548;1293;22557;-66
2023/10/04 06:56:51;;;;;;;13.80;3.00;;;;;;;17.57;67.69;99684.15;134551;1293;25397;-64
2023/10/04 06:59:54;;;;;;;14.40;3.10;;;;;;;17.64;67.09;99683.77;134921;1285;22540;-63
2023/10/04 07:02:58;;;;;;;13.70;2.90;;;;;;;17.76;65.91;99682.20;134940;1285;22635;-66
2023/10/04 07:06:02;;;;;;;8.60;2.60;;;;;;;17.93;65.22;99681.30;134889;1285;22539;-65
2023/10/04 07:09:07;;;;;;;;;;;;;;;17.97;63.43;99686.44;134922;1285;22512;-64
2023/10/04 07:12:09;;;;;;;11.90;2.80;;;;;;;17.83;62.89;99692.77;134958;1285;22554;-63
2023/10/04 07:15:12;;;;;;;;;;;;;;;17.98;62.93;99682.45;134935;1285;22625;-63
2023/10/04 07:18:14;;;;;;;14.60;3.00;;;;;;;18.29;62.32;99678.14;134927;1285;23256;-62
2023/10/04 07:21:17;;;;;;;15.90;3.00;;;;;;;18.16;60.97;99685.83;134995;1284;22540;-64
2023/10/04 07:24:19;;;;;;;;;;;;;;;18.04;60.89;99688.16;135023;1284;22578;-64
2023/10/04 07:27:22;;;;;;;11.50;2.50;;;;;;;18.04;60.49;99684.99;135018;1284;22579;-63
2023/10/04 07:30:25;;;;;;;;;;;;;;;18.15;60.16;99685.91;134989;1284;25229;-65
2023/10/04 07:33:28;;;;;;;16.70;3.10;;;;;;;18.34;59.65;99684.12;134992;1284;22672;-65
2023/10/04 07:36:30;;;;;;;;;;;;;;;18.24;57.96;99707.55;134959;1284;22530;-62
2023/10/04 07:39:33;;;;;;;11.70;2.60;;;;;;;18.10;58.03;99699.08;134974;1269;22523;-64
2023/10/04 07:42:35;;;;;;;11.30;2.90;;;;;;;18.18;58.68;99707.10;134971;1276;22533;-62
2023/10/04 07:45:38;;;;;;;15.20;2.90;;;;;;;18.37;58.48;99693.53;134941;1284;25493;-66
2023/10/04 07:48:42;;;;;;;14.80;2.90;;;;;;;18.49;56.76;99700.42;134981;1284;22532;-65
2023/10/04 07:51:44;;;;;;;14.30;2.80;;;;;;;18.47;55.60;99715.96;134943;1284;24220;-65
2023/10/04 07:54:47;;;;;;;;;;;;;;;18.43;54.84;99713.81;134953;1276;22514;-65
2023/10/04 07:57:49;;;;;;;14.40;3.00;;;;;;;18.47;54.29;99722.18;134959;1276;22537;-64
2023/10/04 08:00:51;;;;;;;;;;;;;;;18.35;55.80;99718.34;134951;1267;24239;-66
2023/10/04 08:03:55;;;;;;;14.90;2.90;;;;;;;18.49;55.12;99719.55;134963;1284;22511;-63
2023/10/04 08:06:58;;;;;;;12.30;2.70;;;;;;;18.55;53.32;99724.73;134959;1284;22535;-68
2023/10/04 08:10:00;;;;;;;;;;;;;;;18.49;52.92;99724.14;134946;1284;22529;-63
2023/10/04 08:13:03;;;;;;;15.10;2.60;;;;;;;18.63;52.29;99722.33;134959;1268;22566;-64
2023/10/04 08:16:06;;;;;;;14.30;2.40;;;;;;;18.54;52.38;99716.14;134929;1284;22556;-61
2023/10/04 08:19:08;;;;;;;;;;;;;;;18.61;52.04;99721.41;134994;1284;22964;-67
2023/10/04 08:22:11;;;;;;;15.10;2.60;;;;;;;19.24;51.64;99703.36;134992;1284;22544;-65
2023/10/04 08:25:14;;;;;;;;;;;;;;;19.17;51.40;99724.52;135000;1284;22510;-65
2023/10/04 08:28:16;;;;;;;12.60;2.70;;;;;;;19.16;51.44;99721.59;134995;1284;22556;-69
2023/10/04 08:31:19;;;;;;;;;;;;;;;19.20;50.74;99729.80;135208;1282;22524;-68
2023/10/04 08:34:23;;;;;;;15.60;3.20;;;;;;;18.87;50.90;99719.33;135212;1282;25409;-62
2023/10/04 08:37:26;;;;;;;13.70;3.10;;;;;;;18.71;51.86;99721.49;135120;1282;22535;-66
2023/10/04 08:40:29;;;;;;;17.60;2.90;;;;;;;18.72;51.51;99726.21;135131;1282;22531;-63
2023/10/04 08:43:32;;;;;;;;;;;;;;;18.64;51.81;99729.70;135143;1282;22629;-64
2023/10/04 08:46:34;;;;;;;18.10;3.30;;;;;;;18.67;51.44;99737.80;135170;1281;22528;-65
2023/10/04 08:49:37;;;;;;;12.20;2.70;;;;;;;18.62;51.43;99737.65;135172;1282;22533;-65
2023/10/04 08:52:39;;;;;;;;;;;;;;;18.76;51.28;99736.67;135225;1282;22507;-63
2023/10/04 08:55:42;;;;;;;;;;;;;;;19.01;50.90;99730.27;135188;1272;22509;-63
2023/10/04 08:58:44;;;;;;;17.80;3.00;;;;;;;19.03;50.91;99737.59;135191;1282;22710;-63
2023/10/04 09:01:47;;;;;;;;;;;;;;;19.02;51.01;99741.52;135199;1282;22546;-62
2023/10/04 09:04:49;;;;;;;13.90;3.00;;;;;;;19.08;50.89;99730.56;135183;1282;22542;-64
2023/10/04 09:07:52;;;;;;;;;;;;;;;19.11;50.52;99737.27;135200;1282;22506;-61
2023/10/04 09:10:54;;;;;;;16.10;2.70;;;;;;;19.07;50.63;99732.27;135149;1282;22531;-63
2023/10/04 09:13:56;;;;;;;;;;;;;;;19.32;50.85;99729.00;135206;1282;22513;-63
2023/10/04 09:16:59;;;;;;;12.70;2.70;;;;;;;19.47;50.89;99729.50;135155;1282;22533;-62
2023/10/04 09:20:02;;;;;;;13.30;2.60;;;;;;;19.67;50.15;99739.87;135158;1282;22548;-66
2023/10/04 09:23:04;;;;;;;15.90;2.80;;;;;;;20.00;50.58;99730.20;135174;1282;22563;-62
2023/10/04 09:26:07;;;;;;;12.40;2.60;;;;;;;20.30;49.85;99727.97;135187;1282;25353;-65
2023/10/04 09:29:11;;;;;;;15.90;3.10;;;;;;;20.25;48.85;99734.63;135158;1282;25331;-63
2023/10/04 09:32:13;;;;;;;16.30;3.00;;;;;;;20.15;48.41;99735.69;135191;1282;22530;-63
2023/10/04 09:35:18;;;;;;;;;;;;;;;20.18;48.96;99728.28;135198;1282;22519;-61
2023/10/04 09:38:21;;;;;;;10.20;2.60;;;;;;;20.14;49.01;99727.97;135157;1282;22528;-66
2023/10/04 09:41:24;;;;;;;11.10;2.40;;;;;;;20.30;47.92;99723.86;135107;1282;22540;-64
2023/10/04 09:44:27;;;;;;;12.10;2.50;;;;;;;20.21;48.12;99718.61;135193;1282;22543;-64
2023/10/04 09:47:29;;;;;;;;;;;;;;;20.39;47.40;99723.08;135188;1282;22584;-64
2023/10/04 09:50:33;;;;;;;13.90;3.10;;;;;;;20.89;47.17;99714.42;135180;1282;22619;-63
2023/10/04 09:53:38;;;;;;;14.10;2.80;;;;;;;21.19;46.55;99719.41;135165;1282;22517;-61
2023/10/04 09:56:41;;;;;;;15.30;2.90;;;;;;;21.39;45.34;99722.41;135148;1282;22544;-63
2023/10/04 09:59:44;;;;;;;15.20;2.80;;;;;;;21.20;46.43;99733.20;135171;1282;22640;-63
2023/10/04 10:02:47;;;;;;;14.00;2.70;;;;;;;21.12;46.06;99737.70;135138;1282;26538;-62
2023/10/04 10:05:50;;;;;;;15.20;2.90;;;;;;;21.12;45.68;99731.92;135159;1282;22533;-63
2023/10/04 10:08:53;;;;;;;14.80;2.60;;;;;;;21.27;46.39;99735.36;135144;1264;22532;-62
2023/10/04 10:11:55;;;;;;;14.00;2.50;;;;;;;21.72;45.39;99722.70;135209;1282;22606;-61
2023/10/04 10:15:00;;;;;;;15.40;2.50;;;;;;;21.98;44.58;99723.74;135134;1282;25361;-61
2023/10/04 10:18:02;;;;;;;11.90;3.00;;;;;;;21.53;44.79;99722.02;135113;1282;22529;-63
2023/10/04 10:21:06;;;;;;;14.50;2.70;;;;;;;21.17;45.70;99725.26;135132;1282;22554;-63
2023/10/04 10:24:09;;;;;;;16.30;2.70;;;;;;;21.16;45.51;99727.91;135168;1282;25351;-63
2023/10/04 10:27:12;;;;;;;12.20;2.40;;;;;;;21.06;45.20;99728.55;135183;1282;22555;-65
2023/10/04 10:30:16;;;;;;;;;;;;;;;21.07;45.80;99723.66;135171;1282;22621;-64
2023/10/04 10:33:19;;;;;;;17.90;2.70;;;;;;;21.32;44.79;99724.61;135153;1282;25493;-63
2023/10/04 10:36:22;;;;;;;14.40;2.30;;;;;;;22.06;44.56;99713.88;135134;1282;22534;-64
2023/10/04 10:39:28;;;;;;;16.90;3.10;;;;;;;22.57;43.78;99717.75;135161;1282;22539;-61
2023/10/04 10:42:31;;;;;;;11.90;2.70;;;;;;;22.52;41.57;99719.80;135114;1282;22558;-63
2023/10/04 10:45:33;;;;;;;17.40;2.90;;;;;;;22.71;41.89;99704.79;135161;1282;22686;-62
2023/10/04 10:48:36;;;;;;;11.60;2.60;;;;;;;22.48;41.74;99714.14;135164;1282;22529;-63
2023/10/04 10:51:38;;;;;;;16.40;2.80;;;;;;;22.22;42.24;99701.87;135121;1282;22663;-65
2023/10/04 10:54:41;;;;;;;14.10;2.70;;;;;;;22.34;43.37;99709.05;135155;1282;25244;-67
2023/10/04 10:57:45;;;;;;;13.70;2.70;;;;;;;22.59;43.83;99699.71;135136;1282;22550;-66
2023/10/04 11:00:47;;;;;;;16.90;3.30;;;;;;;22.75;42.12;99702.95;135170;1282;22554;-67
2023/10/04 11:03:49;;;;;;;15.20;2.80;;;;;;;22.82;41.14;99704.80;135152;1282;22551;-65
2023/10/04 11:06:52;;;;;;;15.40;2.70;;;;;;;22.80;40.86;99700.49;135161;1282;22556;-65
2023/10/04 11:09:54;;;;;;;12.60;3.30;;;;;;;23.04;41.08;99697.42;135129;1280;24294;-64
2023/10/04 11:12:57;;;;;;;10.70;2.50;;;;;;;23.18;40.35;99697.91;135135;1282;22537;-64
2023/10/04 11:16:01;;;;;;;19.80;3.50;;;;;;;23.06;40.77;99694.75;135180;1282;22539;-61
2023/10/04 11:19:05;;;;;;;13.60;2.80;;;;;;;23.08;41.41;99693.15;135137;1281;22539;-63
2023/10/04 11:22:08;;;;;;;11.60;2.80;;;;;;;23.18;41.55;99682.90;135113;1282;22531;-65
2023/10/04 11:25:11;;;;;;;16.40;2.70;;;;;;;23.26;40.98;99687.14;135137;1282;22540;-65
2023/10/04 11:28:13;;;;;;;12.30;2.80;;;;;;;22.95;40.87;99698.31;135179;1264;22533;-66
2023/10/04 11:31:16;;;;;;;14.90;2.90;;;;;;;23.21;40.68;99696.14;135154;1282;22536;-65
2023/10/04 11:34:18;;;;;;;12.10;2.50;;;;;;;23.35;39.86;99703.84;135170;1282;22543;-65
2023/10/04 11:37:20;;;;;;;15.70;2.90;;;;;;;23.22;38.70;99708.38;135163;1282;22546;-63
2023/10/04 11:40:24;;;;;;;15.20;3.00;;;;;;;22.90;40.12;99698.86;135130;1282;24268;-65
2023/10/04 11:43:26;;;;;;;12.40;2.40;;;;;;;22.86;39.01;99709.58;135149;1282;22542;-62
2023/10/04 11:46:29;;;;;;;9.40;2.30;;;;;;;22.93;39.22;99715.14;135113;1282;24341;-67
2023/10/04 11:49:32;;;;;;;10.80;2.20;;;;;;;22.85;39.43;99717.30;135157;1282;24214;-62
2023/10/04 11:52:35;;;;;;;12.00;2.50;;;;;;;23.00;40.16;99716.55;135163;1282;22591;-63
2023/10/04 11:55:37;;;;;;;12.90;2.70;;;;;;;23.07;39.57;99709.64;135115;1282;22537;-65
2023/10/04 11:58:40;;;;;;;8.90;2.30;;;;;;;22.89;39.73;99711.42;135143;1282;22539;-63
2023/10/04 12:01:44;;;;;;;10.80;2.50;;;;;;;23.04;39.91;99706.73;135155;1282;22543;-63
2023/10/04 12:04:47;;;;;;;11.60;2.10;;;;;;;23.29;39.72;99717.78;135133;1282;22645;-63
2023/10/04 12:07:50;;;;;;;11.70;2.70;;;;;;;23.43;38.89;99713.01;135171;1282;22554;-66
2023/10/04 12:10:52;;;;;;;13.30;2.50;;;;;;;23.32;38.71;99707.70;135158;1282;22542;-64
2023/10/04 12:13:55;;;;;;;10.00;2.10;;;;;;;23.07;39.17;99699.70;135147;1281;22550;-63
2023/10/04 12:16:57;;;;;;;11.60;2.80;;;;;;;22.96;40.55;99702.59;135146;1282;22526;-65
2023/10/04 12:20:04;;;;;;;9.60;2.40;;;;;;;23.04;40.47;99713.02;135136;1264;23013;-66
2023/10/04 12:23:06;;;;;;;7.30;2.20;;;;;;;22.99;40.24;99704.89;135172;1270;24342;-65
2023/10/04 12:26:09;;;;;;;12.00;2.60;;;;;;;22.75;39.59;99710.25;135214;1282;22539;-65
2023/10/04 12:29:13;;;;;;;9.90;2.40;;;;;;;22.47;39.40;99705.03;135155;1282;22624;-65
2023/10/04 12:32:19;;;;;;;12.50;2.80;;;;;;;22.60;39.70;99696.80;135144;1282;22533;-65
2023/10/04 12:35:23;;;;;;;11.20;2.40;;;;;;;22.77;40.34;99691.52;135171;1282;22544;-67
2023/10/04 12:38:26;;;;;;;13.70;2.60;;;;;;;23.12;40.53;99678.34;135119;1282;22529;-65
2023/10/04 12:41:30;;;;;;;12.80;2.70;;;;;;;23.30;39.45;99689.73;135182;1282;22548;-67
2023/10/04 12:44:32;;;;;;;12.20;3.30;;;;;;;22.91;38.86;99703.42;135174;1282;22533;-65
2023/10/04 12:47:34;;;;;;;13.60;2.90;;;;;;;22.84;39.28;99702.11;135158;1282;22566;-65
2023/10/04 12:50:37;;;;;;;11.80;2.60;;;;;;;22.80;39.31;99710.11;135175;1263;22540;-65
2023/10/04 12:53:39;;;;;;;15.70;2.60;;;;;;;22.61;39.33;99710.26;135158;1269;22534;-65
2023/10/04 12:56:42;;;;;;;12.30;2.70;;;;;;;22.41;39.51;99709.27;135139;1282;22543;-67
2023/10/04 12:59:45;;;;;;;13.50;2.80;;;;;;;22.10;40.28;99709.52;135166;1264;22579;-65
2023/10/04 13:02:48;;;;;;;14.80;3.10;;;;;;;21.86;41.17;99704.69;135125;1264;22679;-65
2023/10/04 13:05:51;;;;;;;13.60;3.10;;;;;;;21.79;40.94;99714.77;135150;1282;22544;-64
2023/10/04 13:08:54;;;;;;;10.70;2.60;;;;;;;21.44;41.85;99720.27;135105;1282;22529;-64
2023/10/04 13:11:57;;;;;;;10.30;2.40;;;;;;;21.16;42.22;99721.13;135110;1282;25447;-64
2023/10/04 13:14:59;;;;;;;11.30;2.60;;;;;;;20.90;42.39;99724.67;135161;1282;22555;-65
2023/10/04 13:18:06;;;;;;;13.30;2.80;;;;;;;20.90;42.78;99721.42;135158;1282;22528;-65
2023/10/04 13:21:10;;;;;;;13.50;2.90;;;;;;;20.90;42.94;99720.59;135155;1259;22494;-64
2023/10/04 13:24:14;;;;;;;12.00;2.80;;;;;;;20.78;43.28;99729.27;135183;1282;22529;-63
2023/10/04 13:27:18;;;;;;;13.00;2.80;;;;;;;20.88;43.37;99717.96;135169;1282;22533;-64
2023/10/04 13:30:21;;;;;;;10.20;2.50;;;;;;;20.88;43.31;99721.13;135156;1282;24275;-64
2023/10/04 13:33:23;;;;;;;10.20;2.50;;;;;;;20.70;43.50;99730.90;135187;1282;22536;-65
2023/10/04 13:36:26;;;;;;;12.90;3.00;;;;;;;20.98;43.48;99716.17;135188;1282;24240;-63
2023/10/04 13:39:31;;;;;;;;;;;;;;;21.13;43.30;99714.81;135152;1282;22533;-63
2023/10/04 13:42:34;;;;;;;13.40;2.90;;;;;;;21.11;43.13;99699.29;135177;1282;25358;-64
2023/10/04 13:45:37;;;;;;;12.20;2.50;;;;;;;21.26;43.23;99685.55;135182;1282;22569;-62
2023/10/04 13:48:41;;;;;;;;;;;;;;;21.24;43.45;99685.52;135165;1282;22501;-64
2023/10/04 13:51:43;;;;;;;15.50;3.10;;;;;;;21.47;43.10;99681.24;135212;1282;22572;-65
2023/10/04 13:54:50;;;;;;;14.90;3.20;;;;;;;21.40;43.17;99676.21;135177;1282;22542;-64
2023/10/04 13:57:55;;;;;;;14.50;3.20;;;;;;;21.55;43.03;99677.19;135130;1281;25297;-65
2023/10/04 14:01:02;;;;;;;15.10;3.60;;;;;;;21.81;43.20;99672.21;135182;1282;22630;-63
2023/10/04 14:04:04;;;;;;;14.70;3.50;;;;;;;21.99;42.85;99664.34;135181;1282;25295;-64
2023/10/04 14:07:08;;;;;;;15.20;3.20;;;;;;;21.88;42.66;99667.27;135187;1282;22541;-63
2023/10/04 14:10:10;;;;;;;17.00;3.40;;;;;;;21.76;43.21;99657.79;135226;1282;25241;-62
2023/10/04 14:13:13;;;;;;;16.50;3.60;;;;;;;22.09;42.41;99658.05;135183;1282;24212;-63
2023/10/04 14:16:15;;;;;;;17.10;3.20;;;;;;;22.09;42.49;99667.07;135178;1282;22533;-65
2023/10/04 14:19:19;;;;;;;20.50;3.90;;;;;;;22.05;42.44;99664.08;135169;1282;22544;-66
2023/10/04 14:22:21;;;;;;;15.20;3.10;;;;;;;22.03;42.53;99668.36;135142;1282;22537;-65
2023/10/04 14:25:24;;;;;;;12.70;2.80;;;;;;;21.99;42.43;99670.89;135170;1282;24243;-67
2023/10/04 14:28:27;;;;;;;14.20;3.10;;;;;;;21.97;42.66;99666.13;135179;1282;22549;-64
2023/10/04 14:31:29;;;;;;;12.90;2.70;;;;;;;21.90;42.13;99685.31;135158;1282;22526;-67
2023/10/04 14:34:33;;;;;;;18.40;3.50;;;;;;;21.48;42.58;99682.24;135129;1282;22617;-63
2023/10/04 14:37:36;;;;;;;14.50;3.60;;;;;;;21.04;43.88;99699.25;135148;1282;22537;-64
2023/10/04 14:40:39;;;;;;;17.50;4.00;;;;;;;20.92;44.40;99694.30;135208;1282;22540;-64
2023/10/04 14:43:41;;;;;;;13.60;3.00;;;;;;;20.90;44.74;99695.31;135160;1282;22536;-65